createdAt,value
2022-11-05T00:02:17.602Z,17.23
2022-11-05T00:05:38.242Z,17.17
2022-11-05T00:09:00.231Z,17.38
2022-11-05T00:12:25.338Z,16.42
2022-11-05T00:15:46.132Z,14.30
2022-11-05T00:19:06.695Z,14.63
2022-11-05T00:22:27.259Z,14.27
2022-11-05T00:25:30.509Z,14.15
2022-11-05T00:28:33.368Z,15.13
2022-11-05T00:31:35.309Z,13.95
2022-11-05T00:34:38.168Z,14.07
2022-11-05T00:37:42.325Z,13.95
2022-11-05T00:40:46.536Z,14.00
2022-11-05T00:44:07.031Z,12.85
2022-11-05T00:47:27.170Z,11.82
2022-11-05T00:50:29.339Z,14.77
2022-11-05T00:53:31.133Z,15.30
2022-11-05T00:56:32.969Z,17.30
2022-11-05T00:59:34.781Z,16.83
2022-11-05T01:02:36.780Z,16.90
2022-11-05T01:05:44.964Z,16.10
2022-11-05T01:08:47.203Z,15.90
2022-11-05T01:11:49.457Z,15.90
2022-11-05T01:14:51.379Z,16.25
2022-11-05T01:17:53.327Z,15.00
2022-11-05T01:20:55.186Z,14.30
2022-11-05T01:23:57.219Z,15.07
2022-11-05T01:26:59.030Z,13.67
2022-11-05T01:30:00.994Z,14.63
2022-11-05T01:33:03.594Z,14.73
2022-11-05T01:36:05.686Z,15.13
2022-11-05T01:39:07.512Z,14.73
2022-11-05T01:42:19.505Z,16.17
2022-11-05T01:45:25.382Z,14.98
2022-11-05T01:48:32.533Z,15.25
2022-11-05T01:51:34.883Z,16.38
2022-11-05T01:54:36.787Z,15.93
2022-11-05T01:57:38.794Z,32.17
2022-11-05T02:00:42.353Z,19.73
2022-11-05T02:03:46.446Z,17.38
2022-11-05T02:06:48.295Z,18.60
2022-11-05T02:10:00.171Z,16.63
2022-11-05T02:13:03.763Z,16.15
2022-11-05T02:16:23.819Z,16.42
2022-11-05T02:19:44.110Z,16.77
2022-11-05T02:23:07.278Z,15.63
2022-11-05T02:26:33.728Z,16.13
2022-11-05T02:29:44.694Z,15.35
2022-11-05T02:33:18.606Z,15.80
2022-11-05T02:36:46.614Z,15.30
2022-11-05T02:40:01.102Z,15.32
2022-11-05T02:43:24.093Z,16.38
2022-11-05T02:46:32.299Z,16.45
2022-11-05T02:50:01.831Z,15.68
2022-11-05T02:53:12.704Z,15.07
2022-11-05T02:56:22.263Z,15.25
2022-11-05T02:59:24.087Z,15.35
2022-11-05T03:02:26.040Z,14.95
2022-11-05T03:05:40.926Z,15.40
2022-11-05T03:09:00.698Z,15.63
2022-11-05T03:12:32.963Z,14.88
2022-11-05T03:15:46.693Z,15.52
2022-11-05T03:19:02.490Z,16.88
2022-11-05T03:22:23.727Z,15.40
2022-11-05T03:25:29.241Z,16.58
2022-11-05T03:28:35.698Z,20.67
2022-11-05T03:31:41.102Z,20.05
2022-11-05T03:34:47.751Z,24.13
2022-11-05T03:37:54.571Z,20.05
2022-11-05T03:41:00.184Z,18.85
2022-11-05T03:44:06.671Z,18.30
2022-11-05T03:47:17.114Z,16.63
2022-11-05T03:50:28.966Z,16.77
2022-11-05T03:53:37.095Z,17.42
2022-11-05T03:56:58.782Z,18.38
2022-11-05T04:00:00.677Z,17.08
2022-11-05T04:03:02.705Z,15.55
2022-11-05T04:06:25.422Z,16.20
2022-11-05T04:09:46.071Z,16.42
2022-11-05T04:13:06.273Z,17.63
2022-11-05T04:16:27.071Z,17.95
2022-11-05T04:19:47.258Z,17.55
2022-11-05T04:23:08.074Z,16.98
2022-11-05T04:26:10.103Z,17.42
2022-11-05T04:29:31.149Z,17.30
2022-11-05T04:32:33.829Z,17.60
2022-11-05T04:35:38.274Z,17.60
2022-11-05T04:38:41.086Z,17.65
2022-11-05T04:41:43.059Z,17.27
2022-11-05T04:44:44.989Z,19.60
2022-11-05T04:47:46.835Z,19.58
2022-11-05T04:50:48.663Z,18.58
2022-11-05T04:53:50.525Z,19.63
2022-11-05T04:56:52.401Z,20.00
2022-11-05T04:59:55.215Z,21.88
2022-11-05T05:02:57.102Z,19.73
2022-11-05T05:06:03.808Z,18.77
2022-11-05T05:09:06.077Z,19.55
2022-11-05T05:12:08.160Z,18.42
2022-11-05T05:15:10.061Z,19.37
2022-11-05T05:18:11.863Z,20.10
2022-11-05T05:21:33.974Z,18.30
2022-11-05T05:24:35.759Z,17.52
2022-11-05T05:27:37.572Z,18.38
2022-11-05T05:30:39.420Z,18.05
2022-11-05T05:33:41.302Z,18.27
2022-11-05T05:36:43.193Z,17.52
2022-11-05T05:39:48.799Z,17.13
2022-11-05T05:42:55.654Z,16.55
2022-11-05T05:45:57.837Z,15.90
2022-11-05T05:48:59.859Z,14.18
2022-11-05T05:52:01.964Z,14.82
2022-11-05T05:55:04.002Z,14.93
2022-11-05T05:58:05.855Z,15.93
2022-11-05T06:01:17.211Z,15.05
2022-11-05T06:04:20.815Z,14.20
2022-11-05T06:07:23.146Z,16.00
2022-11-05T06:10:25.681Z,14.85
2022-11-05T06:13:28.116Z,13.23
2022-11-05T06:16:35.819Z,9.88
2022-11-05T06:19:37.621Z,8.98
2022-11-05T06:22:39.766Z,9.18
2022-11-05T06:25:41.691Z,9.80
2022-11-05T06:28:43.883Z,9.23
2022-11-05T06:31:45.701Z,8.93
2022-11-05T06:34:47.584Z,8.73
2022-11-05T06:37:49.467Z,8.40
2022-11-05T06:40:51.297Z,8.60
2022-11-05T06:43:53.163Z,7.57
2022-11-05T06:46:54.998Z,8.52
2022-11-05T06:49:57.527Z,7.95
2022-11-05T06:53:01.362Z,8.20
2022-11-05T06:56:07.680Z,8.40
2022-11-05T06:59:09.450Z,8.18
2022-11-05T07:02:13.744Z,10.65
2022-11-05T07:05:16.660Z,8.98
2022-11-05T07:08:18.514Z,8.35
2022-11-05T07:11:20.516Z,8.57
2022-11-05T07:14:22.445Z,8.57
2022-11-05T07:17:24.243Z,8.55
2022-11-05T07:20:32.324Z,8.25
2022-11-05T07:23:35.590Z,8.50
2022-11-05T07:26:37.418Z,9.25
2022-11-05T07:29:39.646Z,8.30
2022-11-05T07:32:41.584Z,7.75
2022-11-05T07:35:43.432Z,8.13
2022-11-05T07:38:45.270Z,8.45
2022-11-05T07:41:47.136Z,8.13
2022-11-05T07:44:49.000Z,8.45
2022-11-05T07:47:52.932Z,8.02
2022-11-05T07:50:54.824Z,8.75
2022-11-05T07:53:56.701Z,8.70
2022-11-05T07:56:58.636Z,8.20
2022-11-05T08:00:00.578Z,9.30
2022-11-05T08:03:07.686Z,8.60
2022-11-05T08:06:09.867Z,8.43
2022-11-05T08:09:11.724Z,9.25
2022-11-05T08:12:13.576Z,9.43
2022-11-05T08:15:15.676Z,9.57
2022-11-05T08:18:18.163Z,9.87
2022-11-05T08:21:20.036Z,10.38
2022-11-05T08:24:21.897Z,10.10
2022-11-05T08:27:23.851Z,11.27
2022-11-05T08:30:26.271Z,10.23
2022-11-05T08:33:31.363Z,10.65
2022-11-05T08:36:35.188Z,9.80
2022-11-05T08:39:37.007Z,10.40
2022-11-05T08:42:38.824Z,10.20
2022-11-05T08:45:41.508Z,9.80
2022-11-05T08:48:44.130Z,10.50
2022-11-05T08:51:46.070Z,11.05
2022-11-05T08:54:47.901Z,11.18
2022-11-05T08:57:59.549Z,11.57
2022-11-05T09:01:05.397Z,12.50
2022-11-05T09:04:07.795Z,12.93
2022-11-05T09:07:09.665Z,12.90
2022-11-05T09:10:11.516Z,12.32
2022-11-05T09:13:18.727Z,12.15
2022-11-05T09:16:26.208Z,12.43
2022-11-05T09:19:28.003Z,13.57
2022-11-05T09:22:30.008Z,13.57
2022-11-05T09:25:32.832Z,13.97
2022-11-05T09:28:34.747Z,15.02
2022-11-05T09:31:36.583Z,14.45
2022-11-05T09:34:38.489Z,15.88
2022-11-05T09:37:40.418Z,14.95
2022-11-05T09:41:01.803Z,16.15
2022-11-05T09:44:13.714Z,14.63
2022-11-05T09:47:26.158Z,15.90
2022-11-05T09:50:36.627Z,14.95
2022-11-05T09:53:41.014Z,15.40
2022-11-05T09:56:43.348Z,14.18
2022-11-05T09:59:48.826Z,13.05
2022-11-05T10:02:57.298Z,12.15
2022-11-05T10:06:07.358Z,11.32
2022-11-05T10:09:25.452Z,11.02
2022-11-05T10:16:18.650Z,10.43
2022-11-05T10:19:36.845Z,10.10
2022-11-05T10:22:41.971Z,8.52
2022-11-05T10:25:51.665Z,8.52
2022-11-05T10:28:55.038Z,8.48
2022-11-05T10:31:58.588Z,8.13
2022-11-05T10:35:04.256Z,8.10
2022-11-05T10:38:06.120Z,7.90
2022-11-05T10:41:40.365Z,7.93
2022-11-05T10:45:02.067Z,7.32
2022-11-05T10:48:27.586Z,7.60
2022-11-05T10:51:31.900Z,6.10
2022-11-05T10:54:35.707Z,7.35
2022-11-05T10:57:40.108Z,6.57
2022-11-05T11:00:59.938Z,6.30
2022-11-05T11:04:23.038Z,5.95
2022-11-05T11:07:28.922Z,4.97
2022-11-05T11:10:37.449Z,6.55
2022-11-05T11:14:10.157Z,6.43
2022-11-05T11:17:27.872Z,5.97
2022-11-05T11:20:33.211Z,5.97
2022-11-05T11:23:41.003Z,5.57
2022-11-05T11:26:42.939Z,5.93
2022-11-05T11:29:52.594Z,5.40
2022-11-05T11:33:03.874Z,5.55
2022-11-05T11:36:06.843Z,5.88
2022-11-05T11:42:26.052Z,5.72
2022-11-05T11:45:43.885Z,6.35
2022-11-05T11:48:50.613Z,5.97
2022-11-05T11:51:59.987Z,5.60
2022-11-05T11:55:23.059Z,5.85
2022-11-05T11:58:38.535Z,6.30
2022-11-05T12:02:02.065Z,5.55
2022-11-05T12:05:16.406Z,5.88
2022-11-05T12:08:41.691Z,5.70
2022-11-05T12:12:05.191Z,5.57
2022-11-05T12:15:20.078Z,5.95
2022-11-05T12:18:33.754Z,5.80
2022-11-05T12:22:30.149Z,4.97
2022-11-05T12:26:18.023Z,4.65
2022-11-05T12:29:53.329Z,4.53
2022-11-05T12:33:36.700Z,4.68
2022-11-05T12:37:20.128Z,5.65
2022-11-05T12:40:34.055Z,6.00
2022-11-05T12:43:41.444Z,5.25
2022-11-05T12:47:09.993Z,5.15
2022-11-05T12:50:24.365Z,4.55
2022-11-05T12:54:05.756Z,4.63
2022-11-05T12:57:11.726Z,14.77
2022-11-05T13:00:13.797Z,5.10
2022-11-05T13:03:15.589Z,5.37
2022-11-05T13:06:22.124Z,7.80
2022-11-05T13:09:54.437Z,5.40
2022-11-05T13:13:07.893Z,4.30
2022-11-05T13:16:22.710Z,4.88
2022-11-05T13:19:47.508Z,4.00
2022-11-05T13:22:55.798Z,4.57
2022-11-05T13:26:15.599Z,5.15
2022-11-05T13:29:32.087Z,5.38
2022-11-05T13:32:45.329Z,74.15
2022-11-05T13:35:47.158Z,21.98
2022-11-05T13:39:10.412Z,96.25
2022-11-05T13:42:16.186Z,60.13
2022-11-05T13:45:50.329Z,100.25
2022-11-05T13:49:01.265Z,35.15
2022-11-05T13:52:27.112Z,48.70
2022-11-05T13:56:01.540Z,66.35
2022-11-05T13:59:43.045Z,110.03
2022-11-05T14:02:51.469Z,47.22
2022-11-05T14:05:59.311Z,18.27
2022-11-05T14:09:04.660Z,22.10
2022-11-05T14:12:16.863Z,12.68
2022-11-05T14:15:23.616Z,45.23
2022-11-05T14:18:25.388Z,30.17
2022-11-05T14:21:27.263Z,22.08
2022-11-05T14:24:43.143Z,32.88
2022-11-05T14:27:47.978Z,30.70
2022-11-05T14:30:49.979Z,23.42
2022-11-05T14:34:03.959Z,37.23
2022-11-05T14:37:11.831Z,31.73
2022-11-05T14:40:26.174Z,36.17
2022-11-05T14:43:31.779Z,21.88
2022-11-05T14:46:45.273Z,11.95
2022-11-05T14:50:11.669Z,16.02
2022-11-05T14:53:36.666Z,14.80
2022-11-05T14:56:56.549Z,28.45
2022-11-05T15:00:00.944Z,27.60
2022-11-05T15:03:27.854Z,37.45
2022-11-05T15:06:32.728Z,45.90
2022-11-05T15:09:42.625Z,31.90
2022-11-05T15:13:03.941Z,25.65
2022-11-05T15:16:07.145Z,28.10
2022-11-05T15:19:25.097Z,71.00
2022-11-05T15:22:35.000Z,33.92
2022-11-05T15:25:50.400Z,50.63
2022-11-05T15:28:56.118Z,31.98
2022-11-05T15:35:00.717Z,33.10
2022-11-05T15:38:02.957Z,16.27
2022-11-05T15:41:27.087Z,50.28
2022-11-05T15:44:38.675Z,23.02
2022-11-05T15:47:46.384Z,96.53
2022-11-05T15:50:48.277Z,15.57
2022-11-05T15:57:27.215Z,11.23
2022-11-05T16:00:33.286Z,9.02
2022-11-05T16:03:38.713Z,11.30
2022-11-05T16:06:42.865Z,9.80
2022-11-05T16:10:01.879Z,9.90
2022-11-05T16:13:23.161Z,9.00
2022-11-05T16:16:33.262Z,9.73
2022-11-05T16:19:40.492Z,11.98
2022-11-05T16:22:48.368Z,11.57
2022-11-05T16:25:51.984Z,11.88
2022-11-05T16:28:54.383Z,11.13
2022-11-05T16:31:58.788Z,13.82
2022-11-05T16:35:03.631Z,14.65
2022-11-05T16:38:06.097Z,14.23
2022-11-05T16:41:20.100Z,13.25
2022-11-05T16:44:21.992Z,12.40
2022-11-05T16:47:26.145Z,16.52
2022-11-05T16:50:31.976Z,35.30
2022-11-05T16:53:33.991Z,25.38
2022-11-05T16:56:36.776Z,13.93
2022-11-05T16:59:38.693Z,22.63
2022-11-05T17:02:43.855Z,24.00
2022-11-05T17:05:46.519Z,17.42
2022-11-05T17:08:48.677Z,22.30
2022-11-05T17:11:50.586Z,13.18
2022-11-05T17:14:52.425Z,11.48
2022-11-05T17:17:55.504Z,9.93
2022-11-05T17:20:57.449Z,12.18
2022-11-05T17:23:59.231Z,14.13
2022-11-05T17:27:01.142Z,12.00
2022-11-05T17:30:03.485Z,15.95
2022-11-05T17:33:05.521Z,21.38
2022-11-05T17:36:09.646Z,12.67
2022-11-05T17:39:11.643Z,15.10
2022-11-05T17:42:13.545Z,9.73
2022-11-05T17:45:15.892Z,15.25
2022-11-05T17:48:19.171Z,11.30
2022-11-05T17:51:21.253Z,19.58
2022-11-05T17:54:23.140Z,9.77
2022-11-05T17:57:25.187Z,9.75
2022-11-05T18:00:29.049Z,22.27
2022-11-05T18:03:31.291Z,13.98
2022-11-05T18:06:33.210Z,11.65
2022-11-05T18:09:34.993Z,14.43
2022-11-05T18:12:37.346Z,17.10
2022-11-05T18:15:41.487Z,9.30
2022-11-05T18:18:43.512Z,16.95
2022-11-05T18:21:46.603Z,12.27
2022-11-05T18:24:48.531Z,13.50
2022-11-05T18:27:50.499Z,21.67
2022-11-05T18:30:52.438Z,12.68
2022-11-05T18:33:59.097Z,10.93
2022-11-05T18:37:00.902Z,10.05
2022-11-05T18:40:02.812Z,11.75
2022-11-05T18:43:06.368Z,10.52
2022-11-05T18:46:08.796Z,10.30
2022-11-05T18:49:13.534Z,9.15
2022-11-05T18:52:15.465Z,9.82
2022-11-05T18:55:17.567Z,10.43
2022-11-05T18:58:19.528Z,10.27
2022-11-05T19:01:24.961Z,11.40
2022-11-05T19:04:27.158Z,11.07
2022-11-05T19:07:31.957Z,11.30
2022-11-05T19:10:34.006Z,11.30
2022-11-05T19:13:36.193Z,11.40
2022-11-05T19:16:38.399Z,11.30
2022-11-05T19:19:40.305Z,11.45
2022-11-05T19:22:42.218Z,9.68
2022-11-05T19:25:44.111Z,17.92
2022-11-05T19:28:46.004Z,13.40
2022-11-05T19:31:48.933Z,10.48
2022-11-05T19:37:54.158Z,10.65
2022-11-05T19:40:55.982Z,10.70
2022-11-05T19:44:01.951Z,9.95
2022-11-05T19:47:05.962Z,9.98
2022-11-05T19:50:08.081Z,11.32
2022-11-05T19:53:10.841Z,11.20
2022-11-05T19:56:16.088Z,11.05
2022-11-05T19:59:18.041Z,10.40
2022-11-05T20:02:20.281Z,10.82
2022-11-05T20:05:22.325Z,10.90
2022-11-05T20:08:24.139Z,10.35
2022-11-05T20:11:26.310Z,9.23
2022-11-05T20:14:28.210Z,9.55
2022-11-05T20:17:30.668Z,10.13
2022-11-05T20:20:33.070Z,10.75
2022-11-05T20:23:36.182Z,11.00
2022-11-05T20:26:38.580Z,10.65
2022-11-05T20:29:40.463Z,9.88
2022-11-05T20:32:42.293Z,10.23
2022-11-05T20:35:44.135Z,10.70
2022-11-05T20:38:50.747Z,12.13
2022-11-05T20:41:53.477Z,11.25
2022-11-05T20:44:55.279Z,11.73
2022-11-05T20:47:57.102Z,15.73
2022-11-05T20:50:59.425Z,13.95
2022-11-05T20:54:01.975Z,12.30
2022-11-05T20:57:04.117Z,12.50
2022-11-05T21:00:07.287Z,10.13
2022-11-05T21:03:09.155Z,10.65
2022-11-05T21:06:12.205Z,11.43
2022-11-05T21:12:15.986Z,11.32
2022-11-05T21:15:22.999Z,9.32
2022-11-05T21:18:32.417Z,9.50
2022-11-05T21:21:37.497Z,9.57
2022-11-05T21:24:43.364Z,9.65
2022-11-05T21:27:45.204Z,8.30
2022-11-05T21:30:49.160Z,8.68
2022-11-05T21:33:55.158Z,9.45
2022-11-05T21:36:58.732Z,9.05
2022-11-05T21:40:00.515Z,9.68
2022-11-05T21:43:02.594Z,9.35
2022-11-05T21:46:05.359Z,8.37
2022-11-05T21:49:07.615Z,9.48
2022-11-05T21:52:30.215Z,8.75
2022-11-05T21:55:50.764Z,8.02
2022-11-05T21:59:18.457Z,7.90
2022-11-05T22:02:22.947Z,6.97
2022-11-05T22:05:24.900Z,7.38
2022-11-05T22:08:27.345Z,7.40
2022-11-05T22:11:29.225Z,8.00
2022-11-05T22:14:31.125Z,7.70
2022-11-05T22:17:33.024Z,7.95
2022-11-05T22:20:39.140Z,8.15
2022-11-05T22:23:41.099Z,9.48
2022-11-05T22:26:43.812Z,8.25
2022-11-05T22:29:46.270Z,8.75
2022-11-05T22:32:48.143Z,8.52
2022-11-05T22:35:49.965Z,9.55
2022-11-05T22:38:52.150Z,8.70
2022-11-05T22:41:56.410Z,8.30
2022-11-05T22:44:59.030Z,9.15
2022-11-05T22:48:06.376Z,8.20
2022-11-05T22:51:11.738Z,8.70
2022-11-05T22:54:13.944Z,8.30
2022-11-05T22:57:15.858Z,8.43
2022-11-05T23:00:18.028Z,8.70
2022-11-05T23:03:20.902Z,9.38
2022-11-05T23:06:44.059Z,8.20
2022-11-05T23:10:04.592Z,8.10
2022-11-05T23:13:08.010Z,8.13
2022-11-05T23:16:28.757Z,8.23
2022-11-05T23:19:49.442Z,7.40
2022-11-05T23:23:10.091Z,7.78
2022-11-05T23:26:30.796Z,7.32
2022-11-05T23:29:32.828Z,7.03
2022-11-05T23:32:35.463Z,7.33
2022-11-05T23:35:56.097Z,7.78
2022-11-05T23:38:57.888Z,7.10
2022-11-05T23:42:18.606Z,7.20
2022-11-05T23:45:39.310Z,7.13
2022-11-05T23:48:41.174Z,7.22
2022-11-05T23:51:43.220Z,7.60
2022-11-05T23:54:45.033Z,7.10
2022-11-05T23:57:47.034Z,8.13
